Time;durP1;ratioP1;P1;durP2;ratioP2;P2;SDS_P1;SDS_P2;PMS_P1;PMS_P2;Temp;Humidity;BMP_temperature;BMP_pressure;BME280_temperature;BME280_humidity;BME280_pressure;Samples;Min_cycle;Max_cycle;Signal;HPM_P1;HPM_P2
2021/01/16 00:00:41;;;;;;;13.93;9.02;;;3.30;99.90;;;;;;3619339;39;20285;-73
2021/01/16 00:03:09;;;;;;;17.92;8.57;;;3.20;99.90;;;;;;3619997;39;20292;-72
2021/01/16 00:05:36;;;;;;;15.90;7.85;;;3.10;99.90;;;;;;3622519;39;20248;-72
2021/01/16 00:08:04;;;;;;;13.90;7.88;;;3.20;99.90;;;;;;3623971;39;20262;-72
2021/01/16 00:10:32;;;;;;;14.65;7.35;;;3.20;99.90;;;;;;3625046;32;20369;-73
2021/01/16 00:12:59;;;;;;;20.02;8.23;;;3.20;99.90;;;;;;3624856;39;20277;-73
2021/01/16 00:15:26;;;;;;;14.65;7.35;;;3.20;99.90;;;;;;3624924;39;20282;-72
2021/01/16 00:18:03;;;;;;;12.02;7.65;;;3.20;99.90;;;;;;3622082;39;20282;-72
2021/01/16 00:20:31;;;;;;;14.88;8.63;;;3.20;99.90;;;;;;3624209;39;20284;-72
2021/01/16 00:22:58;;;;;;;25.73;9.75;;;3.20;99.90;;;;;;3621579;39;20305;-73
2021/01/16 00:25:26;;;;;;;11.25;7.80;;;3.20;99.90;;;;;;3621741;39;20286;-73
2021/01/16 00:27:53;;;;;;;22.55;8.32;;;3.20;99.90;;;;;;3622005;39;20242;-72
2021/01/16 00:30:22;;;;;;;14.18;7.63;;;3.20;99.90;;;;;;3621837;39;20257;-73
2021/01/16 00:32:48;;;;;;;14.10;6.80;;;3.20;99.90;;;;;;3622606;39;20262;-73
2021/01/16 00:35:17;;;;;;;13.82;7.70;;;3.20;99.90;;;;;;3622439;39;20331;-72
2021/01/16 00:37:45;;;;;;;11.68;7.13;;;3.20;99.90;;;;;;3621763;39;20865;-72
2021/01/16 00:40:15;;;;;;;12.50;7.38;;;3.20;99.90;;;;;;3622804;39;20271;-73
2021/01/16 00:42:43;;;;;;;12.57;7.53;;;3.20;99.90;;;;;;3622303;39;20262;-72
2021/01/16 00:45:11;;;;;;;12.20;8.18;;;3.20;99.90;;;;;;3621379;39;20245;-72
2021/01/16 00:47:38;;;;;;;13.10;7.30;;;3.20;99.90;;;;;;3621591;39;20375;-72
2021/01/16 00:50:06;;;;;;;16.33;7.38;;;3.10;99.90;;;;;;3621659;39;20378;-72
2021/01/16 00:52:33;;;;;;;12.40;6.60;;;3.10;99.90;;;;;;3621719;39;20274;-73
2021/01/16 00:55:00;;;;;;;13.35;7.72;;;3.10;99.90;;;;;;3626265;39;20357;-73
2021/01/16 00:57:27;;;;;;;17.95;8.60;;;3.10;99.90;;;;;;3639159;31;20265;-72
2021/01/16 00:59:55;;;;;;;16.77;7.40;;;3.10;99.90;;;;;;3626579;32;20282;-73
2021/01/16 01:02:22;;;;;;;10.30;7.28;;;3.10;99.90;;;;;;3623989;39;20396;-73
2021/01/16 01:04:48;;;;;;;13.27;7.70;;;3.20;99.90;;;;;;3621790;39;20249;-72
2021/01/16 01:07:15;;;;;;;14.65;7.30;;;3.20;99.90;;;;;;3621561;39;20315;-72
2021/01/16 01:09:42;;;;;;;13.90;6.95;;;3.20;99.90;;;;;;3621299;39;20258;-72
2021/01/16 01:12:09;;;;;;;12.32;6.75;;;3.10;99.90;;;;;;3623675;39;20278;-72
2021/01/16 01:14:36;;;;;;;15.77;7.22;;;3.10;99.90;;;;;;3623669;39;20314;-72
2021/01/16 01:17:13;;;;;;;11.77;7.28;;;3.10;99.90;;;;;;3656708;32;20246;-72
2021/01/16 01:19:40;;;;;;;12.40;7.22;;;3.10;99.90;;;;;;3623978;39;20279;-72
2021/01/16 01:22:06;;;;;;;12.57;7.90;;;3.00;99.90;;;;;;3621012;39;20266;-72
2021/01/16 01:24:32;;;;;;;13.30;6.68;;;3.10;99.90;;;;;;3621671;39;20279;-73
2021/01/16 01:26:59;;;;;;;12.95;7.88;;;3.00;99.90;;;;;;3621611;39;20288;-73
2021/01/16 01:29:25;;;;;;;11.52;6.70;;;3.00;99.90;;;;;;3621470;39;20256;-73
2021/01/16 01:31:52;;;;;;;15.73;8.02;;;3.00;99.90;;;;;;3623579;39;20946;-73
2021/01/16 01:34:19;;;;;;;13.00;7.28;;;3.10;99.90;;;;;;3620975;39;20249;-73
2021/01/16 01:36:46;;;;;;;14.88;7.53;;;3.10;99.90;;;;;;3620837;39;20269;-73
2021/01/16 01:39:12;;;;;;;11.15;6.90;;;3.10;99.90;;;;;;3621197;39;20244;-73
2021/01/16 01:41:39;;;;;;;12.93;7.32;;;3.00;99.90;;;;;;3624269;39;20272;-73
2021/01/16 01:44:07;;;;;;;12.75;7.03;;;3.00;99.90;;;;;;3621755;39;20284;-73
2021/01/16 01:46:33;;;;;;;13.10;7.32;;;3.10;99.90;;;;;;3624134;39;20252;-73
2021/01/16 01:49:00;;;;;;;14.02;7.78;;;3.10;99.90;;;;;;3620359;39;20632;-73
2021/01/16 01:51:31;;;;;;;12.85;7.45;;;3.10;99.90;;;;;;3622272;39;20393;-73
2021/01/16 01:53:59;;;;;;;13.60;6.85;;;3.10;99.90;;;;;;3621552;39;20364;-73
2021/01/16 01:56:26;;;;;;;16.42;7.25;;;3.00;99.90;;;;;;3623520;39;20712;-72
2021/01/16 01:58:54;;;;;;;12.18;7.93;;;3.10;99.90;;;;;;3620390;39;20243;-72
2021/01/16 02:01:22;;;;;;;16.38;7.22;;;3.10;99.90;;;;;;3620660;39;20696;-72
2021/01/16 02:03:49;;;;;;;16.25;8.15;;;3.00;99.90;;;;;;3622927;39;20317;-72
2021/01/16 02:06:16;;;;;;;22.33;7.47;;;3.00;99.90;;;;;;3620567;39;20262;-72
2021/01/16 02:08:43;;;;;;;13.05;7.20;;;3.10;99.90;;;;;;3620488;39;20275;-72
2021/01/16 02:11:11;;;;;;;12.57;7.85;;;3.00;99.90;;;;;;3620756;39;20244;-72
2021/01/16 02:13:37;;;;;;;12.88;7.28;;;3.10;99.90;;;;;;3623612;39;20266;-72
2021/01/16 02:16:09;;;;;;;12.45;7.47;;;3.10;99.90;;;;;;3620597;39;20267;-72
2021/01/16 02:18:37;;;;;;;11.90;7.88;;;3.10;99.90;;;;;;3620765;39;20263;-72
2021/01/16 02:21:05;;;;;;;12.38;7.28;;;3.10;99.90;;;;;;3622992;39;20288;-72
2021/01/16 02:23:34;;;;;;;13.77;7.97;;;3.10;99.90;;;;;;3620491;39;20261;-73
2021/01/16 02:26:38;;;;;;;17.80;8.00;;;3.10;99.90;;;;;;3620207;39;20286;-72
2021/01/16 02:29:08;;;;;;;14.15;8.18;;;3.10;99.90;;;;;;3620157;39;20271;-72
2021/01/16 02:31:39;;;;;;;17.13;8.38;;;3.10;99.90;;;;;;3621491;39;20355;-72
2021/01/16 02:34:08;;;;;;;11.65;8.40;;;3.10;99.90;;;;;;3623855;39;20261;-71
2021/01/16 02:37:23;;;;;;;16.27;7.85;;;3.10;99.90;;;;;;3620904;39;20260;-72
2021/01/16 02:40:01;;;;;;;15.30;8.13;;;3.10;99.90;;;;;;3620709;39;20356;-72
2021/01/16 02:42:37;;;;;;;13.52;8.30;;;3.00;99.90;;;;;;3620921;39;20292;-72
2021/01/16 02:45:07;;;;;;;16.83;9.23;;;3.00;99.90;;;;;;3620316;39;20336;-71
2021/01/16 02:47:48;;;;;;;13.63;8.07;;;3.10;99.90;;;;;;3620859;39;20249;-72
2021/01/16 02:50:20;;;;;;;14.23;8.18;;;3.10;99.90;;;;;;3621373;39;20244;-72
2021/01/16 02:52:48;;;;;;;14.52;8.25;;;3.10;99.90;;;;;;3621503;31;20248;-71
2021/01/16 02:55:16;;;;;;;16.48;8.18;;;3.10;99.90;;;;;;3620543;39;20291;-72
2021/01/16 02:57:43;;;;;;;11.05;7.20;;;3.10;99.90;;;;;;3620358;39;20265;-71
2021/01/16 03:00:13;;;;;;;12.35;7.85;;;3.10;99.90;;;;;;3619838;39;20256;-72
2021/01/16 03:02:39;;;;;;;12.13;7.60;;;3.10;99.90;;;;;;3623469;39;20267;-72
2021/01/16 03:05:07;;;;;;;19.23;7.95;;;3.10;99.90;;;;;;3624535;39;20258;-71
2021/01/16 03:07:34;;;;;;;14.93;8.32;;;3.10;99.90;;;;;;3623748;39;20795;-72
2021/01/16 03:10:05;;;;;;;14.85;8.57;;;3.10;99.90;;;;;;3620203;39;20260;-72
2021/01/16 03:12:32;;;;;;;18.38;7.75;;;3.20;99.90;;;;;;3623460;39;20282;-72
2021/01/16 03:15:02;;;;;;;13.65;7.68;;;3.10;99.90;;;;;;3619768;39;20772;-72
2021/01/16 03:17:43;;;;;;;19.00;8.73;;;3.10;99.90;;;;;;3624127;39;20945;-72
2021/01/16 03:20:11;;;;;;;16.92;8.63;;;3.10;99.90;;;;;;3627126;32;20752;-73
2021/01/16 03:22:38;;;;;;;13.73;7.50;;;3.10;99.90;;;;;;3620400;39;20249;-72
2021/01/16 03:25:06;;;;;;;15.27;7.97;;;3.10;99.90;;;;;;3628600;32;21100;-72
2021/01/16 03:27:32;;;;;;;16.08;7.93;;;3.10;99.90;;;;;;3624395;39;20264;-73
2021/01/16 03:29:58;;;;;;;14.07;8.02;;;3.10;99.90;;;;;;3620219;39;20264;-72
2021/01/16 03:32:25;;;;;;;16.63;8.77;;;3.10;99.90;;;;;;3620106;39;20307;-72
2021/01/16 03:34:53;;;;;;;13.05;7.80;;;3.10;99.90;;;;;;3623169;39;20357;-72
2021/01/16 03:37:20;;;;;;;17.98;9.48;;;3.10;99.90;;;;;;3621862;39;20255;-73
2021/01/16 03:39:46;;;;;;;14.07;8.93;;;3.10;99.90;;;;;;3621463;39;20322;-72
2021/01/16 03:42:13;;;;;;;16.63;8.52;;;3.10;99.90;;;;;;3619920;39;20346;-72
2021/01/16 03:44:40;;;;;;;14.52;8.05;;;3.10;99.90;;;;;;3622143;39;20655;-72
2021/01/16 03:47:06;;;;;;;11.00;7.78;;;3.10;99.90;;;;;;3627233;39;20255;-72
2021/01/16 03:49:34;;;;;;;17.42;9.40;;;3.10;99.90;;;;;;3622553;39;20243;-72
2021/01/16 03:52:02;;;;;;;16.85;8.18;;;3.10;99.90;;;;;;3622268;39;20351;-72
2021/01/16 03:54:28;;;;;;;15.30;8.00;;;3.20;99.90;;;;;;3624591;39;20346;-72
2021/01/16 03:56:54;;;;;;;12.82;8.15;;;3.10;99.90;;;;;;3624587;39;20267;-72
2021/01/16 03:59:21;;;;;;;16.20;7.97;;;3.10;99.90;;;;;;3626004;39;20264;-72
2021/01/16 04:01:48;;;;;;;15.15;9.00;;;3.10;99.90;;;;;;3622747;39;20278;-72
2021/01/16 04:04:15;;;;;;;17.70;8.45;;;3.10;99.90;;;;;;3627942;39;20336;-72
2021/01/16 04:06:41;;;;;;;15.52;8.20;;;3.10;99.90;;;;;;3622544;39;20253;-73
2021/01/16 04:09:09;;;;;;;13.05;8.35;;;3.10;99.90;;;;;;3623116;39;20378;-72
2021/01/16 04:11:36;;;;;;;16.83;9.63;;;3.10;99.90;;;;;;3625144;39;20300;-72
2021/01/16 04:14:03;;;;;;;13.70;8.27;;;3.10;99.90;;;;;;3626982;39;20295;-73
2021/01/16 04:16:29;;;;;;;13.20;8.95;;;3.00;99.90;;;;;;3621538;39;20275;-72
2021/01/16 04:18:55;;;;;;;14.48;9.00;;;3.00;99.90;;;;;;3621522;39;20274;-72
2021/01/16 04:21:23;;;;;;;14.93;8.32;;;3.00;99.90;;;;;;3622519;39;20260;-73
2021/01/16 04:23:50;;;;;;;17.30;8.38;;;3.00;99.90;;;;;;3624376;39;20275;-72
2021/01/16 04:26:17;;;;;;;19.95;9.52;;;3.00;99.90;;;;;;3622299;39;20694;-72
2021/01/16 04:28:43;;;;;;;15.15;9.65;;;3.00;99.90;;;;;;3621681;39;20249;-72
2021/01/16 04:31:10;;;;;;;15.40;9.15;;;3.00;99.90;;;;;;3623632;39;20358;-72
2021/01/16 04:33:36;;;;;;;16.95;9.27;;;3.00;99.90;;;;;;3621657;39;20290;-72
2021/01/16 04:36:04;;;;;;;13.10;7.97;;;3.00;99.90;;;;;;3627140;39;20276;-72
2021/01/16 04:38:30;;;;;;;15.68;9.65;;;3.10;99.90;;;;;;3621560;39;20244;-72
2021/01/16 04:40:57;;;;;;;15.75;9.15;;;3.10;99.90;;;;;;3621995;39;20257;-72
2021/01/16 04:43:25;;;;;;;14.45;8.65;;;3.10;99.90;;;;;;3622103;39;20245;-72
2021/01/16 04:46:00;;;;;;;16.27;9.35;;;3.10;99.90;;;;;;3621739;39;20280;-72
2021/01/16 04:48:28;;;;;;;15.98;9.55;;;3.20;99.90;;;;;;3621755;39;20291;-72
2021/01/16 04:50:59;;;;;;;19.67;10.15;;;3.20;99.90;;;;;;3621375;39;20276;-72
2021/01/16 04:53:36;;;;;;;17.15;9.15;;;3.20;99.90;;;;;;3623565;39;20828;-72
2021/01/16 04:56:04;;;;;;;14.68;9.35;;;3.20;99.90;;;;;;3625969;39;21000;-72
2021/01/16 04:58:34;;;;;;;14.15;8.63;;;3.20;99.90;;;;;;3621346;39;20269;-72
2021/01/16 05:01:04;;;;;;;14.30;9.07;;;3.20;99.90;;;;;;3621887;39;20279;-72
2021/01/16 05:03:37;;;;;;;12.68;7.60;;;3.20;99.90;;;;;;3621308;39;20260;-72
2021/01/16 05:06:07;;;;;;;18.15;9.05;;;3.30;99.90;;;;;;3623865;39;20260;-72
2021/01/16 05:08:37;;;;;;;17.63;8.95;;;3.30;99.90;;;;;;3621355;39;20243;-72
2021/01/16 05:11:06;;;;;;;19.08;9.30;;;3.30;99.90;;;;;;3622767;39;20285;-72
2021/01/16 05:13:43;;;;;;;16.85;9.43;;;3.20;99.90;;;;;;3622600;39;20264;-72
2021/01/16 05:16:12;;;;;;;17.08;8.98;;;3.20;99.90;;;;;;3626890;39;20247;-72
2021/01/16 05:18:42;;;;;;;18.02;8.68;;;3.20;99.90;;;;;;3621213;39;20255;-72
2021/01/16 05:21:09;;;;;;;16.17;9.10;;;3.10;99.90;;;;;;3621568;39;20254;-72
2021/01/16 05:23:41;;;;;;;15.57;8.80;;;3.10;99.90;;;;;;3622240;39;20301;-72
2021/01/16 05:26:08;;;;;;;13.70;8.13;;;3.10;99.90;;;;;;3625299;32;20248;-72
2021/01/16 05:28:34;;;;;;;17.52;9.00;;;3.10;99.90;;;;;;3621235;39;20250;-72
2021/01/16 05:31:04;;;;;;;16.70;8.95;;;3.10;99.90;;;;;;3623607;39;20246;-72
2021/01/16 05:33:32;;;;;;;16.88;8.80;;;3.10;99.90;;;;;;3621366;39;20289;-72
2021/01/16 05:36:00;;;;;;;17.60;9.38;;;3.10;99.90;;;;;;3620829;39;20232;-72
2021/01/16 05:38:28;;;;;;;12.80;8.00;;;3.20;99.90;;;;;;3621421;39;20264;-72
2021/01/16 05:40:59;;;;;;;14.13;9.35;;;3.20;99.90;;;;;;3622044;39;20359;-72
2021/01/16 05:43:27;;;;;;;19.10;9.65;;;3.20;99.90;;;;;;3625873;39;20663;-72
2021/01/16 05:45:59;;;;;;;14.25;7.78;;;3.20;99.90;;;;;;3623943;39;20241;-72
2021/01/16 05:48:28;;;;;;;15.13;7.85;;;3.10;99.90;;;;;;3620852;39;20281;-72
2021/01/16 05:50:56;;;;;;;17.38;8.85;;;3.10;99.90;;;;;;3620948;39;20345;-72
2021/01/16 05:53:24;;;;;;;15.23;7.90;;;3.10;99.90;;;;;;3620802;39;20250;-72
2021/01/16 05:55:51;;;;;;;15.40;8.02;;;3.10;99.90;;;;;;3621574;39;20254;-72
2021/01/16 05:58:19;;;;;;;14.70;9.23;;;3.00;99.90;;;;;;3620672;39;20254;-72
2021/01/16 06:00:49;;;;;;;11.55;7.45;;;3.00;99.90;;;;;;3620915;39;20252;-72
2021/01/16 06:03:17;;;;;;;16.77;8.68;;;3.10;99.90;;;;;;3623446;39;20275;-74
2021/01/16 06:05:49;;;;;;;15.40;7.63;;;3.10;99.90;;;;;;3622882;39;20259;-72
2021/01/16 06:08:16;;;;;;;18.67;9.07;;;3.00;99.90;;;;;;3620750;39;20280;-72
2021/01/16 06:10:44;;;;;;;15.95;7.75;;;3.00;99.90;;;;;;3621078;39;20638;-72
2021/01/16 06:13:15;;;;;;;15.52;7.95;;;3.10;99.90;;;;;;3623067;39;20272;-72
2021/01/16 06:15:47;;;;;;;19.35;9.57;;;3.00;99.90;;;;;;3627812;39;20249;-72
2021/01/16 06:18:23;;;;;;;19.30;9.60;;;3.10;99.90;;;;;;3620495;39;20236;-72
2021/01/16 06:20:53;;;;;;;13.48;7.55;;;3.00;99.90;;;;;;3623550;39;20256;-72
2021/01/16 06:23:21;;;;;;;21.73;9.73;;;3.00;99.90;;;;;;3620772;39;20267;-72
2021/01/16 06:25:52;;;;;;;17.60;9.52;;;2.90;99.90;;;;;;3620792;39;20252;-73
2021/01/16 06:28:21;;;;;;;17.58;9.55;;;2.90;99.90;;;;;;3624931;39;20312;-73
2021/01/16 06:30:53;;;;;;;15.65;8.77;;;3.00;99.90;;;;;;3620899;39;20256;-73
2021/01/16 06:33:28;;;;;;;19.38;9.52;;;3.00;99.90;;;;;;3620423;39;20296;-73
2021/01/16 06:36:01;;;;;;;14.20;8.93;;;3.00;99.90;;;;;;3620177;39;20268;-72
2021/01/16 06:38:30;;;;;;;18.30;8.32;;;3.00;99.90;;;;;;3620247;39;20258;-72
2021/01/16 06:41:11;;;;;;;18.88;9.40;;;2.90;99.90;;;;;;3650145;31;20263;-72
2021/01/16 06:43:39;;;;;;;11.38;8.50;;;2.80;99.90;;;;;;3620929;39;20265;-72
2021/01/16 06:46:08;;;;;;;13.43;8.20;;;2.80;99.90;;;;;;3621885;39;20274;-72
2021/01/16 06:48:38;;;;;;;15.00;9.18;;;2.80;99.90;;;;;;3620204;39;20338;-72
2021/01/16 06:51:09;;;;;;;15.48;8.82;;;2.80;99.90;;;;;;3620401;39;20268;-72
2021/01/16 06:53:35;;;;;;;15.63;9.57;;;2.90;99.90;;;;;;3620064;39;20636;-72
2021/01/16 06:56:14;;;;;;;13.93;8.48;;;2.90;99.90;;;;;;3623192;39;20252;-72
2021/01/16 06:58:43;;;;;;;15.75;8.48;;;2.90;99.90;;;;;;3620293;32;20346;-72
2021/01/16 07:01:12;;;;;;;20.02;9.32;;;2.90;99.90;;;;;;3621867;39;20289;-72
2021/01/16 07:03:44;;;;;;;15.93;9.90;;;3.00;99.90;;;;;;3620697;39;20264;-72
2021/01/16 07:06:13;;;;;;;18.92;10.65;;;3.00;99.90;;;;;;3620424;39;20286;-72
2021/01/16 07:08:41;;;;;;;17.08;9.25;;;2.90;99.90;;;;;;3619922;39;20255;-72
2021/01/16 07:11:09;;;;;;;19.42;10.15;;;2.90;99.90;;;;;;3622944;39;20263;-72
2021/01/16 07:13:35;;;;;;;17.48;10.10;;;2.90;99.90;;;;;;3622171;39;20256;-72
2021/01/16 07:16:05;;;;;;;15.55;9.38;;;2.90;99.90;;;;;;3620821;39;20292;-72
2021/01/16 07:18:32;;;;;;;19.70;9.30;;;2.90;99.90;;;;;;3622035;39;20253;-72
2021/01/16 07:21:00;;;;;;;18.52;9.93;;;2.90;99.90;;;;;;3621788;39;20267;-72
2021/01/16 07:23:28;;;;;;;20.20;9.93;;;3.00;99.90;;;;;;3621163;39;20293;-72
2021/01/16 07:25:55;;;;;;;19.63;10.18;;;3.00;99.90;;;;;;3624454;39;20293;-72
2021/01/16 07:28:23;;;;;;;20.40;11.35;;;3.10;99.90;;;;;;3624519;39;20296;-72
2021/01/16 07:30:51;;;;;;;19.20;10.53;;;3.10;99.90;;;;;;3626824;39;20125;-72
2021/01/16 07:33:18;;;;;;;18.35;10.40;;;3.20;99.90;;;;;;3622457;39;20430;-72
2021/01/16 07:35:50;;;;;;;17.73;9.85;;;3.20;99.90;;;;;;3622005;39;20262;-72
2021/01/16 07:38:18;;;;;;;17.77;10.35;;;3.20;99.90;;;;;;3622234;39;20291;-72
2021/01/16 07:40:46;;;;;;;19.10;9.93;;;3.20;99.90;;;;;;3622584;39;20245;-72
2021/01/16 07:43:36;;;;;;;19.85;11.25;;;3.20;99.90;;;;;;3621736;39;20285;-72
2021/01/16 07:46:09;;;;;;;16.95;10.18;;;3.20;99.90;;;;;;3623730;39;20256;-72
2021/01/16 07:48:48;;;;;;;18.52;11.27;;;3.20;99.90;;;;;;3622905;39;20362;-72
2021/01/16 07:51:16;;;;;;;24.02;11.20;;;3.20;99.90;;;;;;3643175;31;20272;-73
2021/01/16 07:53:43;;;;;;;20.13;11.60;;;3.20;99.90;;;;;;3622094;39;20268;-73
2021/01/16 07:56:20;;;;;;;19.52;9.48;;;3.30;99.90;;;;;;3625667;39;20277;-73
2021/01/16 07:59:06;;;;;;;21.60;10.73;;;3.20;99.90;;;;;;3623305;39;20274;-73
2021/01/16 08:01:42;;;;;;;26.48;10.40;;;3.20;99.90;;;;;;3625391;39;20244;-73
2021/01/16 08:04:26;;;;;;;18.80;11.65;;;3.30;99.90;;;;;;3623037;39;20347;-73
2021/01/16 08:07:03;;;;;;;19.75;10.60;;;3.20;99.90;;;;;;3623487;39;20785;-73
2021/01/16 08:09:54;;;;;;;17.83;9.77;;;3.20;99.90;;;;;;3623575;39;20267;-73
2021/01/16 08:12:23;;;;;;;19.10;9.90;;;3.20;99.90;;;;;;3621836;39;20256;-73
2021/01/16 08:14:49;;;;;;;19.50;10.45;;;3.30;99.90;;;;;;3622656;39;20264;-72
2021/01/16 08:17:19;;;;;;;19.33;10.95;;;3.30;99.90;;;;;;3623909;39;20780;-73
2021/01/16 08:20:07;;;;;;;22.83;10.90;;;3.30;99.90;;;;;;3651362;32;20286;-72
2021/01/16 08:22:38;;;;;;;20.48;10.88;;;3.40;99.90;;;;;;3624284;39;20280;-73
2021/01/16 08:25:06;;;;;;;29.63;12.18;;;3.30;99.90;;;;;;3621259;39;20334;-73
2021/01/16 08:27:36;;;;;;;23.42;11.10;;;3.20;99.90;;;;;;3623714;39;20352;-73
2021/01/16 08:30:14;;;;;;;20.67;11.23;;;3.20;99.90;;;;;;3624879;39;20291;-73
2021/01/16 08:32:56;;;;;;;20.60;11.77;;;3.20;99.90;;;;;;3621881;39;20337;-73
2021/01/16 08:35:25;;;;;;;21.73;10.35;;;3.20;99.90;;;;;;3620661;39;20333;-72
2021/01/16 08:37:52;;;;;;;24.40;12.23;;;3.30;99.90;;;;;;3621346;39;20340;-73
2021/01/16 08:40:36;;;;;;;19.23;10.65;;;3.30;99.90;;;;;;3621904;39;20819;-73
2021/01/16 08:43:04;;;;;;;19.85;10.95;;;3.30;99.90;;;;;;3621607;39;20270;-72
2021/01/16 08:45:30;;;;;;;24.75;11.07;;;3.30;99.90;;;;;;3623796;39;20326;-73
2021/01/16 08:47:58;;;;;;;22.08;11.90;;;3.40;99.90;;;;;;3626783;39;20252;-73
2021/01/16 08:50:29;;;;;;;17.77;10.75;;;3.50;99.90;;;;;;3622250;39;20305;-73
2021/01/16 08:52:56;;;;;;;23.52;10.75;;;3.50;99.90;;;;;;3621701;39;20249;-73
2021/01/16 08:55:29;;;;;;;22.85;11.93;;;3.60;99.90;;;;;;3621798;39;20265;-72
2021/01/16 08:58:11;;;;;;;23.67;11.57;;;3.70;99.90;;;;;;3624159;39;20357;-72
2021/01/16 09:00:39;;;;;;;19.00;10.77;;;3.70;99.90;;;;;;3621821;39;20256;-73
2021/01/16 09:03:08;;;;;;;18.33;11.32;;;3.80;99.90;;;;;;3621433;39;20263;-72
2021/01/16 09:05:35;;;;;;;23.73;12.07;;;3.80;99.90;;;;;;3622751;39;20257;-73
2021/01/16 09:08:03;;;;;;;20.75;12.15;;;3.80;99.90;;;;;;3630373;39;20248;-72
2021/01/16 09:10:32;;;;;;;26.33;11.20;;;3.80;99.90;;;;;;3629102;39;20859;-73
2021/01/16 09:12:59;;;;;;;20.13;10.77;;;3.70;99.90;;;;;;3623543;39;20279;-72
2021/01/16 09:15:30;;;;;;;18.02;11.30;;;3.50;99.90;;;;;;3623913;39;20252;-73
2021/01/16 09:18:04;;;;;;;21.73;11.30;;;3.50;99.90;;;;;;3627142;32;20404;-73
2021/01/16 09:20:31;;;;;;;23.08;12.32;;;3.60;99.90;;;;;;3621761;39;20256;-73
2021/01/16 09:22:58;;;;;;;21.38;11.98;;;3.60;99.90;;;;;;3621716;39;20261;-73
2021/01/16 09:25:26;;;;;;;28.15;12.75;;;3.60;99.90;;;;;;3620766;39;20814;-73
2021/01/16 09:27:55;;;;;;;22.60;12.45;;;3.60;99.90;;;;;;3621083;39;20352;-73
2021/01/16 09:30:24;;;;;;;25.23;11.95;;;3.60;99.90;;;;;;3624526;32;20249;-72
2021/01/16 09:32:52;;;;;;;20.75;10.93;;;3.70;99.90;;;;;;3620652;39;20254;-72
2021/01/16 09:35:36;;;;;;;27.67;11.63;;;3.70;99.90;;;;;;3622964;39;20287;-72
2021/01/16 09:38:05;;;;;;;24.80;13.57;;;3.70;99.90;;;;;;3621072;39;20248;-73
2021/01/16 09:40:35;;;;;;;21.83;12.40;;;3.70;99.90;;;;;;3623037;39;20286;-72
2021/01/16 09:43:14;;;;;;;19.35;11.52;;;3.70;99.90;;;;;;3624665;39;20321;-73
2021/01/16 09:45:50;;;;;;;25.42;12.93;;;3.60;99.90;;;;;;3630266;39;20263;-73
2021/01/16 09:48:41;;;;;;;22.55;13.20;;;3.70;99.90;;;;;;3659192;31;20670;-73
2021/01/16 09:51:08;;;;;;;23.27;12.95;;;3.70;99.90;;;;;;3621137;39;20272;-73
2021/01/16 09:53:35;;;;;;;22.38;12.55;;;3.70;99.90;;;;;;3623671;39;20306;-73
2021/01/16 09:56:02;;;;;;;21.02;11.50;;;3.60;99.90;;;;;;3649551;31;20634;-73
2021/01/16 09:58:31;;;;;;;21.23;11.88;;;3.60;99.90;;;;;;3620731;39;20265;-72
2021/01/16 10:01:18;;;;;;;24.00;12.85;;;3.60;99.90;;;;;;3622124;39;20273;-73
2021/01/16 10:03:46;;;;;;;18.33;12.30;;;3.60;99.90;;;;;;3621243;39;20299;-73
2021/01/16 10:06:17;;;;;;;21.73;11.98;;;3.70;99.90;;;;;;3620638;39;20337;-73
2021/01/16 10:08:44;;;;;;;20.80;11.20;;;3.60;99.90;;;;;;3622791;39;20360;-73
2021/01/16 10:11:13;;;;;;;23.25;12.68;;;3.60;99.90;;;;;;3625507;39;20256;-73
2021/01/16 10:13:41;;;;;;;22.52;12.57;;;3.70;99.90;;;;;;3621046;39;20265;-73
2021/01/16 10:16:09;;;;;;;20.00;11.35;;;3.80;99.90;;;;;;3624758;39;20285;-73
2021/01/16 10:18:37;;;;;;;20.77;10.90;;;3.80;99.90;;;;;;3623758;39;20263;-73
2021/01/16 10:21:09;;;;;;;20.55;12.23;;;3.70;99.90;;;;;;3623238;39;20261;-72
2021/01/16 10:23:36;;;;;;;23.02;12.40;;;3.70;99.90;;;;;;3623649;39;20275;-73
2021/01/16 10:26:13;;;;;;;25.70;12.43;;;3.60;99.90;;;;;;3620561;39;20305;-72
2021/01/16 10:29:01;;;;;;;20.95;11.23;;;3.70;99.90;;;;;;3620371;39;20297;-72
2021/01/16 10:31:29;;;;;;;26.42;10.13;;;3.70;99.90;;;;;;3619385;39;20266;-73
2021/01/16 10:34:05;;;;;;;20.05;11.68;;;3.80;99.90;;;;;;3623254;31;20314;-73
2021/01/16 10:36:34;;;;;;;18.95;10.60;;;3.90;99.90;;;;;;3636793;31;20260;-75
2021/01/16 10:39:09;;;;;;;24.17;10.20;;;3.90;99.90;;;;;;3623415;39;20258;-75
2021/01/16 10:41:37;;;;;;;19.80;10.15;;;3.80;99.90;;;;;;3624682;39;20256;-75
2021/01/16 10:44:06;;;;;;;19.98;9.82;;;3.80;99.90;;;;;;3621069;39;20770;-75
2021/01/16 10:46:40;;;;;;;29.90;12.07;;;3.80;99.90;;;;;;3625984;39;20285;-75
2021/01/16 10:49:18;;;;;;;18.17;10.52;;;3.70;99.90;;;;;;3627120;32;20266;-74
2021/01/16 10:51:50;;;;;;;18.38;10.90;;;3.80;99.90;;;;;;3620758;39;20268;-75
2021/01/16 10:54:18;;;;;;;26.30;10.95;;;3.90;99.90;;;;;;3619708;39;20284;-73
2021/01/16 10:56:58;;;;;;;20.58;10.77;;;3.90;99.90;;;;;;3624685;39;20255;-72
2021/01/16 10:59:26;;;;;;;19.35;10.23;;;4.00;99.90;;;;;;3629020;39;20294;-73
2021/01/16 11:18:25;;;;;;;20.85;10.63;;;4.00;99.90;;;;;;3655055;31;20316;-73
2021/01/16 11:24:22;;;;;;;22.63;11.05;;;4.00;99.90;;;;;;3661309;31;20314;-74
2021/01/16 11:47:50;;;;;;;21.20;9.88;;;4.20;99.90;;;;;;3628223;32;20252;-76
2021/01/16 11:50:17;;;;;;;20.13;11.00;;;4.20;99.90;;;;;;3606142;39;20263;-75
2021/01/16 11:52:44;;;;;;;20.35;10.88;;;4.10;99.90;;;;;;3609238;39;20255;-76
2021/01/16 11:55:11;;;;;;;18.75;10.55;;;4.10;99.90;;;;;;3605805;39;20276;-72
2021/01/16 11:57:39;;;;;;;18.33;10.90;;;4.20;99.90;;;;;;3608482;39;20252;-72
2021/01/16 12:00:06;;;;;;;18.10;9.77;;;4.20;99.90;;;;;;3605796;39;20842;-75
2021/01/16 12:02:34;;;;;;;22.73;10.93;;;4.10;99.90;;;;;;3609227;39;20251;-75
2021/01/16 12:05:01;;;;;;;22.23;11.00;;;4.00;99.90;;;;;;3631078;39;20289;-75
2021/01/16 12:07:29;;;;;;;18.60;10.48;;;4.00;99.90;;;;;;3632477;31;20373;-76
2021/01/16 12:09:57;;;;;;;19.20;10.02;;;3.90;99.90;;;;;;3628555;39;20267;-76
2021/01/16 12:12:31;;;;;;;19.23;11.75;;;3.80;99.90;;;;;;3630837;39;20263;-77
2021/01/16 12:15:00;;;;;;;17.48;9.68;;;3.80;99.90;;;;;;3624243;39;20318;-72
2021/01/16 12:17:29;;;;;;;18.00;10.15;;;3.70;99.90;;;;;;3623570;39;20248;-72
2021/01/16 12:19:56;;;;;;;21.92;11.55;;;3.60;99.90;;;;;;3627122;39;20778;-72
2021/01/16 12:22:28;;;;;;;21.13;10.05;;;3.70;99.90;;;;;;3622352;39;20423;-72
2021/01/16 12:24:55;;;;;;;20.38;10.95;;;3.80;99.90;;;;;;3622390;39;20299;-72
2021/01/16 12:27:23;;;;;;;25.17;10.82;;;3.80;99.90;;;;;;3621451;39;20284;-72
2021/01/16 12:29:54;;;;;;;23.30;11.02;;;3.90;99.90;;;;;;3623422;39;20572;-72
2021/01/16 12:32:21;;;;;;;20.13;11.18;;;4.00;99.90;;;;;;3621385;39;20357;-72
2021/01/16 12:34:49;;;;;;;21.60;10.82;;;4.10;99.90;;;;;;3623610;39;20363;-72
2021/01/16 12:37:25;;;;;;;17.70;10.43;;;4.20;99.90;;;;;;3620722;39;20287;-72
2021/01/16 12:39:52;;;;;;;25.40;12.00;;;4.20;99.90;;;;;;3643525;32;20300;-72
2021/01/16 12:42:18;;;;;;;22.70;12.45;;;4.20;99.90;;;;;;3621512;39;20284;-74
2021/01/16 12:44:45;;;;;;;21.75;11.38;;;4.20;99.90;;;;;;3623287;39;20288;-74
2021/01/16 12:47:19;;;;;;;17.88;11.43;;;4.20;99.90;;;;;;3621252;39;20781;-74
2021/01/16 12:49:49;;;;;;;25.17;12.73;;;4.20;99.90;;;;;;3621758;39;20267;-76
2021/01/16 12:52:22;;;;;;;20.63;11.32;;;4.20;99.90;;;;;;3623629;39;20364;-74
2021/01/16 12:55:02;;;;;;;20.02;11.20;;;4.30;99.90;;;;;;3641568;31;20249;-75
2021/01/16 12:57:30;;;;;;;18.10;10.82;;;4.50;99.90;;;;;;3623142;39;20283;-74
2021/01/16 12:59:57;;;;;;;21.35;12.43;;;4.50;99.90;;;;;;3621867;39;20273;-76
2021/01/16 13:02:25;;;;;;;22.58;10.80;;;4.40;99.90;;;;;;3621611;39;20253;-76
2021/01/16 13:04:58;;;;;;;20.70;10.98;;;4.40;99.90;;;;;;3625807;39;20244;-76
2021/01/16 13:07:28;;;;;;;19.05;11.15;;;4.20;99.90;;;;;;3624240;39;20259;-77
2021/01/16 13:09:55;;;;;;;16.55;10.63;;;4.10;99.90;;;;;;3621355;39;20284;-76
2021/01/16 13:12:24;;;;;;;15.88;9.93;;;4.10;99.90;;;;;;3621874;39;20370;-76
2021/01/16 13:14:52;;;;;;;21.75;10.50;;;4.10;99.90;;;;;;3622396;39;20297;-77
2021/01/16 13:17:20;;;;;;;22.10;11.55;;;4.10;99.90;;;;;;3620452;39;20252;-75
2021/01/16 13:19:48;;;;;;;20.67;10.75;;;4.20;99.90;;;;;;3620875;39;20279;-75
2021/01/16 13:22:16;;;;;;;23.33;10.30;;;4.30;99.90;;;;;;3620553;39;20247;-72
2021/01/16 13:24:43;;;;;;;18.10;10.02;;;4.20;99.90;;;;;;3624063;39;20267;-74
2021/01/16 13:27:20;;;;;;;18.38;10.00;;;4.10;99.90;;;;;;3622347;39;20295;-76
2021/01/16 13:29:52;;;;;;;18.73;9.70;;;3.90;99.90;;;;;;3624430;39;20261;-78
2021/01/16 13:32:22;;;;;;;15.02;9.05;;;3.80;99.90;;;;;;3621221;39;20276;-74
2021/01/16 13:34:55;;;;;;;17.98;9.63;;;3.80;99.90;;;;;;3620573;39;20263;-76
2021/01/16 13:37:24;;;;;;;16.98;9.48;;;4.00;99.90;;;;;;3623049;39;20274;-76